Sign-in with your pilot id or email, or register

ICAO: WSSS Name / Country: Singapore Changi Airport / Singapore
Latitude: 1.35514 Longitude: 103.99
Total Arrivals:
Strict Standards: Non-static method AirportData::getarrflights() should not be called statically, assuming $this from incompatible context in /var/www/customers/vh-7192/web/home/phpvms/core/templates/airport_info.tpl on line 18
1
Total Departures:
Strict Standards: Non-static method AirportData::getdeptflights() should not be called statically, assuming $this from incompatible context in /var/www/customers/vh-7192/web/home/phpvms/core/templates/airport_info.tpl on line 21
1
Latest Arrival: MTA5PM (VTBS-WSSS) Tibor Berces Latest Departure: MTA5PM (WSSS-WIII) Tibor Berces
Metar: WSSS 271030Z VRB02KT 9999 FEW018 BKN270 28/23 Q1009 NOSIG
More info

Charts for WSSS


NOTAM


Warning: file_get_contents(http://api.vateud.net/notams/WSSS.json): failed to open stream: Redirection limit reached, aborting in /var/www/customers/vh-7192/web/home/phpvms/core/common/NOTAMSData.class.php on line 18

Warning: Invalid argument supplied for foreach() in /var/www/customers/vh-7192/web/home/phpvms/core/common/NOTAMSData.class.php on line 22

Singapore Changi Airport